createdAt,value
2022-10-18T00:00:21.164Z,79.17
2022-10-18T00:02:48.248Z,78.60
2022-10-18T00:05:15.490Z,78.25
2022-10-18T00:07:42.705Z,77.35
2022-10-18T00:10:10.329Z,77.31
2022-10-18T00:12:38.472Z,77.29
2022-10-18T00:15:07.578Z,77.18
2022-10-18T00:17:35.793Z,77.17
2022-10-18T00:20:03.233Z,77.17
2022-10-18T00:22:30.886Z,76.74
2022-10-18T00:24:58.194Z,76.94
2022-10-18T00:27:25.522Z,76.90
2022-10-18T00:29:53.886Z,76.67
2022-10-18T00:32:21.170Z,76.36
2022-10-18T00:34:48.425Z,76.37
2022-10-18T00:37:15.492Z,76.80
2022-10-18T00:39:42.722Z,77.14
2022-10-18T00:42:18.352Z,76.78
2022-10-18T00:44:45.857Z,76.58
2022-10-18T00:47:16.603Z,76.33
2022-10-18T00:49:52.133Z,76.47
2022-10-18T00:52:28.152Z,77.89
2022-10-18T00:54:56.967Z,83.89
2022-10-18T00:57:25.884Z,87.90
2022-10-18T00:59:53.847Z,90.09
2022-10-18T01:02:21.786Z,91.41
2022-10-18T01:04:49.512Z,94.55
2022-10-18T01:07:25.998Z,95.10
2022-10-18T01:10:08.291Z,93.46
2022-10-18T01:13:40.458Z,90.50
2022-10-18T01:16:24.341Z,88.18
2022-10-18T01:19:10.397Z,86.62
2022-10-18T01:21:50.379Z,85.76
2022-10-18T01:24:41.149Z,84.83
2022-10-18T01:27:36.371Z,83.03
2022-10-18T01:30:41.196Z,82.19
2022-10-18T01:33:25.865Z,82.39
2022-10-18T01:36:19.539Z,84.72
2022-10-18T01:38:51.243Z,83.97
2022-10-18T01:41:21.853Z,83.27
2022-10-18T01:43:53.784Z,82.45
2022-10-18T01:46:23.952Z,82.00
2022-10-18T01:48:52.853Z,81.47
2022-10-18T01:51:24.717Z,80.95
2022-10-18T01:53:51.777Z,79.93
2022-10-18T01:56:28.432Z,79.99
2022-10-18T01:59:06.557Z,79.57
2022-10-18T02:01:40.000Z,79.24
2022-10-18T02:04:42.549Z,78.43
2022-10-18T02:07:42.658Z,78.41
2022-10-18T02:10:25.812Z,78.07
2022-10-18T02:12:55.395Z,78.13
2022-10-18T02:15:30.046Z,77.87
2022-10-18T02:17:57.736Z,77.75
2022-10-18T02:20:29.105Z,77.84
2022-10-18T02:22:59.773Z,77.79
2022-10-18T02:25:30.625Z,77.87
2022-10-18T02:27:58.534Z,77.50
2022-10-18T02:30:33.881Z,77.68
2022-10-18T02:33:12.911Z,81.47
2022-10-18T02:35:54.333Z,84.01
2022-10-18T02:38:25.493Z,85.35
2022-10-18T02:40:52.875Z,85.13
2022-10-18T02:43:19.980Z,85.13
2022-10-18T02:45:47.321Z,84.00
2022-10-18T02:48:14.582Z,83.49
2022-10-18T02:50:41.708Z,82.51
2022-10-18T02:53:08.809Z,83.21
2022-10-18T02:55:36.118Z,82.94
2022-10-18T02:58:03.249Z,82.88
2022-10-18T03:00:30.416Z,82.63
2022-10-18T03:02:57.628Z,85.66
2022-10-18T03:05:24.728Z,86.27
2022-10-18T03:07:51.963Z,86.57
2022-10-18T03:10:19.067Z,86.32
2022-10-18T03:12:46.415Z,86.32
2022-10-18T03:15:13.837Z,85.78
2022-10-18T03:17:41.110Z,84.42
2022-10-18T03:20:08.673Z,83.14
2022-10-18T03:22:35.866Z,82.90
2022-10-18T03:25:03.175Z,82.31
2022-10-18T03:27:30.712Z,81.59
2022-10-18T03:29:59.274Z,81.52
2022-10-18T03:32:26.401Z,81.63
2022-10-18T03:34:53.586Z,81.30
2022-10-18T03:37:20.736Z,85.30
2022-10-18T03:39:47.865Z,86.99
2022-10-18T03:42:14.977Z,86.34
2022-10-18T03:44:42.100Z,85.05
2022-10-18T03:47:09.292Z,83.85
2022-10-18T03:49:36.498Z,82.78
2022-10-18T03:52:03.692Z,82.37
2022-10-18T03:54:31.265Z,81.46
2022-10-18T03:56:58.537Z,80.66
2022-10-18T03:59:25.599Z,80.42
2022-10-18T04:01:52.975Z,80.30
2022-10-18T04:04:20.469Z,79.98
2022-10-18T04:06:47.600Z,79.29
2022-10-18T04:09:14.834Z,79.34
2022-10-18T04:11:42.043Z,79.24
2022-10-18T04:14:09.096Z,79.38
2022-10-18T04:19:08.664Z,79.51
2022-10-18T04:21:35.948Z,79.68
2022-10-18T04:24:03.197Z,79.39
2022-10-18T04:26:30.302Z,79.29
2022-10-18T04:28:57.594Z,79.25
2022-10-18T04:31:24.668Z,80.40
2022-10-18T04:33:52.529Z,80.49
2022-10-18T04:36:19.839Z,81.05
2022-10-18T04:38:47.364Z,85.28
2022-10-18T04:41:15.229Z,89.70
2022-10-18T04:43:43.290Z,94.10
2022-10-18T04:46:10.519Z,95.13
2022-10-18T04:48:37.800Z,94.54
2022-10-18T04:51:05.007Z,93.44
2022-10-18T04:53:32.708Z,92.37
2022-10-18T04:55:59.958Z,91.00
2022-10-18T04:58:27.347Z,89.84
2022-10-18T05:00:54.513Z,88.80
2022-10-18T05:03:21.743Z,89.82
2022-10-18T05:06:04.288Z,92.23
2022-10-18T05:08:34.543Z,93.50
2022-10-18T05:11:02.548Z,93.72
2022-10-18T05:13:30.551Z,96.36
2022-10-18T05:15:59.551Z,96.11
2022-10-18T05:18:27.012Z,95.18
2022-10-18T05:20:54.096Z,95.19
2022-10-18T05:23:39.740Z,95.08
2022-10-18T05:26:08.019Z,94.04
2022-10-18T05:28:40.376Z,94.98
2022-10-18T05:31:09.507Z,95.02
2022-10-18T05:33:36.675Z,94.46
2022-10-18T05:36:04.614Z,93.65
2022-10-18T05:38:31.921Z,93.18
2022-10-18T05:40:59.948Z,94.18
2022-10-18T05:43:30.531Z,96.33
2022-10-18T05:45:57.909Z,96.56
2022-10-18T05:48:25.208Z,98.99
2022-10-18T05:50:52.883Z,100.00
2022-10-18T05:53:37.140Z,100.00
2022-10-18T05:56:05.050Z,100.00
2022-10-18T05:58:32.467Z,100.00
2022-10-18T06:01:01.712Z,100.00
2022-10-18T06:03:30.935Z,99.93
2022-10-18T06:06:10.137Z,98.31
2022-10-18T06:08:38.857Z,97.40
2022-10-18T06:11:10.714Z,95.50
2022-10-18T06:13:46.023Z,94.40
2022-10-18T06:16:14.677Z,92.77
2022-10-18T06:18:42.292Z,91.81
2022-10-18T06:21:10.244Z,91.38
2022-10-18T06:23:37.501Z,90.69
2022-10-18T06:26:07.578Z,95.47
2022-10-18T06:28:36.418Z,98.30
2022-10-18T06:31:05.297Z,98.54
2022-10-18T06:33:33.941Z,97.78
2022-10-18T06:36:04.297Z,97.13
2022-10-18T06:38:31.986Z,96.90
2022-10-18T06:41:00.060Z,96.86
2022-10-18T06:43:27.635Z,96.23
2022-10-18T06:45:55.314Z,95.62
2022-10-18T06:48:22.778Z,95.05
2022-10-18T06:50:57.191Z,97.85
2022-10-18T06:53:32.287Z,100.00
2022-10-18T06:56:05.184Z,100.00
2022-10-18T06:58:33.557Z,100.00
2022-10-18T07:01:06.668Z,100.00
2022-10-18T07:03:35.129Z,100.00
2022-10-18T07:06:03.623Z,100.00
2022-10-18T07:08:31.350Z,100.00
2022-10-18T07:10:58.846Z,100.00
2022-10-18T07:13:32.420Z,100.00
2022-10-18T07:16:11.547Z,100.00
2022-10-18T07:18:49.790Z,99.03
2022-10-18T07:21:19.426Z,97.07
2022-10-18T07:23:47.425Z,95.30
2022-10-18T07:26:17.855Z,93.54
2022-10-18T07:28:48.031Z,92.76
2022-10-18T07:31:15.728Z,92.30
2022-10-18T07:33:45.569Z,89.27
2022-10-18T07:36:13.651Z,87.70
2022-10-18T07:38:41.548Z,86.28
2022-10-18T07:41:12.480Z,85.46
2022-10-18T07:43:48.962Z,84.16
2022-10-18T07:46:17.372Z,83.24
2022-10-18T07:48:44.833Z,83.24
2022-10-18T07:51:12.337Z,82.68
2022-10-18T07:53:39.830Z,81.76
2022-10-18T07:56:15.851Z,82.66
2022-10-18T07:58:47.894Z,81.01
2022-10-18T08:01:15.837Z,80.23
2022-10-18T08:03:43.900Z,79.28
2022-10-18T08:06:13.072Z,79.01
2022-10-18T08:08:41.242Z,79.09
2022-10-18T08:11:11.924Z,78.99
2022-10-18T08:13:39.401Z,78.53
2022-10-18T08:16:12.294Z,79.22
2022-10-18T08:18:39.399Z,79.05
2022-10-18T08:21:08.833Z,78.81
2022-10-18T08:23:36.395Z,78.48
2022-10-18T08:26:06.392Z,78.48
2022-10-18T08:28:37.030Z,78.90
2022-10-18T08:31:06.727Z,79.03
2022-10-18T08:33:34.972Z,77.35
2022-10-18T08:36:05.961Z,77.21
2022-10-18T08:38:38.107Z,76.02
2022-10-18T08:41:32.949Z,76.37
2022-10-18T08:44:17.597Z,75.42
2022-10-18T08:46:49.387Z,73.51
2022-10-18T08:49:29.439Z,73.41
2022-10-18T08:51:58.284Z,72.46
2022-10-18T08:54:40.119Z,70.93
2022-10-18T08:57:15.257Z,70.39
2022-10-18T08:59:42.610Z,70.67
2022-10-18T09:02:32.077Z,70.05
2022-10-18T09:05:22.787Z,70.79
2022-10-18T09:07:58.994Z,68.93
2022-10-18T09:10:50.619Z,67.60
2022-10-18T09:13:53.221Z,67.07
2022-10-18T09:16:31.608Z,66.89
2022-10-18T09:19:22.706Z,66.26
2022-10-18T09:21:54.203Z,65.21
2022-10-18T09:24:38.867Z,65.29
2022-10-18T09:27:21.414Z,64.92
2022-10-18T09:30:19.078Z,63.75
2022-10-18T09:33:20.086Z,62.79
2022-10-18T09:35:58.018Z,62.30
2022-10-18T09:38:31.674Z,60.72
2022-10-18T09:41:17.609Z,60.82
2022-10-18T09:44:00.673Z,60.45
2022-10-18T09:46:32.538Z,60.34
2022-10-18T09:49:31.662Z,60.59
2022-10-18T09:52:03.976Z,60.53
2022-10-18T09:54:56.308Z,59.23
2022-10-18T09:57:32.606Z,57.89
2022-10-18T10:00:01.883Z,58.19
2022-10-18T10:02:32.309Z,58.06
2022-10-18T10:04:59.526Z,57.74
2022-10-18T10:07:36.344Z,57.79
2022-10-18T10:10:15.952Z,57.10
2022-10-18T10:12:44.225Z,57.03
2022-10-18T10:15:23.517Z,56.58
2022-10-18T10:18:02.314Z,55.97
2022-10-18T10:20:47.326Z,55.53
2022-10-18T10:23:26.460Z,55.30
2022-10-18T10:25:56.792Z,55.38
2022-10-18T10:28:28.863Z,54.86
2022-10-18T10:31:18.605Z,54.37
2022-10-18T10:33:47.784Z,54.00
2022-10-18T10:36:21.282Z,53.76
2022-10-18T10:39:06.317Z,53.68
2022-10-18T10:41:34.871Z,53.22
2022-10-18T10:44:14.490Z,52.97
2022-10-18T10:46:42.088Z,52.78
2022-10-18T10:49:39.775Z,52.24
2022-10-18T10:52:33.747Z,51.90
2022-10-18T10:55:23.622Z,51.69
2022-10-18T10:57:52.512Z,51.19
2022-10-18T11:00:36.658Z,50.80
2022-10-18T11:03:34.531Z,49.31
2022-10-18T11:06:02.040Z,49.12
2022-10-18T11:08:39.085Z,47.96
2022-10-18T11:11:31.631Z,48.65
2022-10-18T11:14:26.928Z,48.01
2022-10-18T11:17:08.182Z,47.20
2022-10-18T11:19:44.604Z,46.72
2022-10-18T11:22:18.716Z,46.00
2022-10-18T11:24:46.085Z,46.27
2022-10-18T11:27:29.406Z,45.45
2022-10-18T11:30:33.997Z,45.56
2022-10-18T11:33:56.230Z,46.15
2022-10-18T11:36:49.475Z,46.50
2022-10-18T11:39:41.294Z,46.21
2022-10-18T11:42:39.143Z,45.29
2022-10-18T11:45:25.685Z,45.75
2022-10-18T11:48:20.917Z,45.81
2022-10-18T11:50:55.503Z,45.94
2022-10-18T11:53:52.038Z,45.74
2022-10-18T11:56:28.779Z,44.85
2022-10-18T11:59:11.052Z,45.13
2022-10-18T12:01:49.655Z,46.01
2022-10-18T12:04:49.058Z,45.62
2022-10-18T12:07:34.039Z,44.68
2022-10-18T12:10:03.251Z,43.64
2022-10-18T12:12:36.989Z,43.57
2022-10-18T12:15:13.463Z,43.19
2022-10-18T12:17:49.089Z,41.94
2022-10-18T12:20:26.234Z,41.49
2022-10-18T12:23:04.015Z,40.89
2022-10-18T12:25:36.503Z,40.19
2022-10-18T12:28:25.672Z,40.15
2022-10-18T12:30:58.877Z,40.07
2022-10-18T12:33:35.752Z,38.82
2022-10-18T12:36:21.182Z,38.54
2022-10-18T12:38:58.338Z,38.58
2022-10-18T12:41:47.560Z,38.79
2022-10-18T12:44:23.867Z,39.12
2022-10-18T12:46:58.130Z,38.93
2022-10-18T12:49:30.297Z,38.90
2022-10-18T12:52:06.810Z,38.17
2022-10-18T12:54:36.752Z,38.89
2022-10-18T12:57:06.866Z,38.32
2022-10-18T12:59:33.887Z,38.83
2022-10-18T13:02:01.198Z,38.16
2022-10-18T13:04:28.425Z,37.98
2022-10-18T13:06:59.364Z,36.69
2022-10-18T13:09:35.777Z,36.34
2022-10-18T13:12:13.091Z,36.22
2022-10-18T13:15:00.569Z,35.78
2022-10-18T13:18:03.160Z,35.75
2022-10-18T13:21:08.969Z,35.22
2022-10-18T13:24:04.006Z,35.95
2022-10-18T13:26:54.082Z,35.67
2022-10-18T13:29:55.968Z,35.62
2022-10-18T13:32:47.494Z,35.15
2022-10-18T13:35:57.495Z,35.26
2022-10-18T13:38:28.185Z,35.64
2022-10-18T13:41:07.801Z,35.85
2022-10-18T13:43:53.556Z,36.36
2022-10-18T13:46:33.549Z,36.20
2022-10-18T13:49:22.703Z,36.17
2022-10-18T13:52:12.333Z,35.55
2022-10-18T13:55:16.558Z,35.56
2022-10-18T13:57:56.727Z,35.96
2022-10-18T14:00:55.079Z,35.26
2022-10-18T14:04:08.180Z,34.55
2022-10-18T14:06:43.300Z,34.58
2022-10-18T14:12:21.958Z,33.86
2022-10-18T14:14:54.444Z,34.20
2022-10-18T14:17:27.595Z,34.73
2022-10-18T14:20:28.581Z,34.64
2022-10-18T14:23:05.683Z,34.29
2022-10-18T14:25:36.105Z,33.88
2022-10-18T14:28:27.357Z,34.30
2022-10-18T14:31:11.835Z,34.31
2022-10-18T14:33:41.265Z,33.51
2022-10-18T14:36:22.803Z,33.81
2022-10-18T14:38:49.962Z,34.11
2022-10-18T14:41:20.079Z,34.29
2022-10-18T14:43:48.654Z,34.74
2022-10-18T14:46:24.166Z,34.87
2022-10-18T14:49:02.429Z,34.69
2022-10-18T14:51:35.798Z,35.29
2022-10-18T14:54:03.495Z,35.74
2022-10-18T14:56:37.060Z,35.51
2022-10-18T14:59:05.921Z,35.68
2022-10-18T15:01:33.328Z,36.33
2022-10-18T15:04:05.730Z,36.44
2022-10-18T15:06:33.715Z,37.27
2022-10-18T15:09:04.403Z,37.23
2022-10-18T15:11:32.421Z,37.58
2022-10-18T15:14:08.940Z,37.72
2022-10-18T15:16:38.998Z,38.02
2022-10-18T15:19:15.324Z,38.25
2022-10-18T15:22:19.682Z,38.89
2022-10-18T15:25:03.039Z,39.26
2022-10-18T15:27:33.613Z,39.80
2022-10-18T15:30:38.942Z,40.10
2022-10-18T15:33:10.756Z,40.68
2022-10-18T15:35:39.373Z,40.71
2022-10-18T15:38:25.635Z,40.60
2022-10-18T15:40:53.265Z,41.15
2022-10-18T15:43:23.588Z,41.81
2022-10-18T15:45:53.960Z,42.05
2022-10-18T15:48:33.208Z,42.43
2022-10-18T15:51:04.916Z,42.01
2022-10-18T15:53:33.396Z,42.54
2022-10-18T15:56:27.992Z,43.24
2022-10-18T15:58:57.488Z,44.02
2022-10-18T16:01:58.296Z,45.07
2022-10-18T16:04:27.953Z,45.88
2022-10-18T16:06:56.122Z,46.82
2022-10-18T16:09:25.626Z,46.90
2022-10-18T16:11:56.744Z,47.22
2022-10-18T16:14:26.531Z,47.55
2022-10-18T16:17:00.909Z,47.62
2022-10-18T16:19:28.256Z,47.85
2022-10-18T16:22:03.646Z,48.44
2022-10-18T16:24:39.985Z,49.48
2022-10-18T16:27:15.323Z,49.53
2022-10-18T16:30:30.377Z,50.14
2022-10-18T16:32:57.570Z,50.76
2022-10-18T16:38:36.035Z,51.78
2022-10-18T16:48:51.534Z,53.06
2022-10-18T16:51:24.721Z,52.94
2022-10-18T16:58:14.509Z,53.95
2022-10-18T17:00:42.249Z,54.56
2022-10-18T17:03:12.735Z,54.82
2022-10-18T17:05:49.425Z,55.15
2022-10-18T17:08:23.222Z,54.35
2022-10-18T17:10:57.871Z,53.89
2022-10-18T17:13:28.903Z,52.96
2022-10-18T17:19:36.482Z,51.98
2022-10-18T17:22:04.031Z,52.02
2022-10-18T17:24:31.508Z,52.72
2022-10-18T17:26:58.898Z,52.61
2022-10-18T17:29:26.037Z,52.70
2022-10-18T17:31:54.309Z,51.57
2022-10-18T17:34:21.701Z,51.72
2022-10-18T17:36:49.131Z,51.91
2022-10-18T17:39:16.346Z,51.71
2022-10-18T17:41:43.694Z,52.29
2022-10-18T17:44:14.305Z,52.35
2022-10-18T17:46:42.275Z,53.98
2022-10-18T17:49:10.082Z,54.12
2022-10-18T17:51:37.353Z,53.43
2022-10-18T17:54:05.928Z,53.77
2022-10-18T17:56:35.995Z,53.56
2022-10-18T17:59:03.440Z,53.60
2022-10-18T18:01:30.784Z,53.64
2022-10-18T18:03:59.975Z,54.17
2022-10-18T18:06:34.301Z,53.98
2022-10-18T18:09:07.537Z,54.70
2022-10-18T18:11:36.920Z,55.05
2022-10-18T18:14:09.010Z,55.10
2022-10-18T18:16:42.319Z,55.18
2022-10-18T18:19:10.294Z,55.12
2022-10-18T18:21:41.249Z,55.33
2022-10-18T18:24:10.401Z,55.45
2022-10-18T18:26:38.733Z,57.75
2022-10-18T18:29:06.224Z,57.26
2022-10-18T18:31:38.786Z,57.34
2022-10-18T18:34:09.914Z,57.63
2022-10-18T18:36:37.408Z,56.24
2022-10-18T18:39:08.326Z,56.66
2022-10-18T18:41:38.618Z,56.62
2022-10-18T18:44:06.370Z,56.97
2022-10-18T18:46:38.718Z,56.85
2022-10-18T18:49:07.464Z,57.29
2022-10-18T18:51:38.185Z,57.38
2022-10-18T18:54:05.708Z,57.67
2022-10-18T18:56:33.406Z,58.10
2022-10-18T18:59:01.695Z,57.66
2022-10-18T19:01:31.788Z,58.07
2022-10-18T19:03:59.845Z,58.32
2022-10-18T19:06:38.878Z,58.52
2022-10-18T19:09:22.620Z,58.79
2022-10-18T19:11:53.040Z,58.63
2022-10-18T19:16:53.839Z,59.15
2022-10-18T19:19:23.826Z,59.46
2022-10-18T19:21:56.855Z,60.96
2022-10-18T19:24:26.360Z,63.24
2022-10-18T19:27:05.733Z,62.67
2022-10-18T19:29:35.758Z,62.06
2022-10-18T19:32:06.301Z,62.07
2022-10-18T19:34:34.824Z,61.54
2022-10-18T19:37:02.381Z,61.70
2022-10-18T19:39:34.772Z,62.32
2022-10-18T19:42:06.109Z,62.01
2022-10-18T19:44:36.139Z,62.69
2022-10-18T19:47:05.176Z,62.59
2022-10-18T19:49:32.909Z,61.55
2022-10-18T19:52:00.349Z,61.43
2022-10-18T19:54:28.008Z,61.94
2022-10-18T19:56:55.482Z,61.98
2022-10-18T19:59:24.200Z,61.63
2022-10-18T20:01:51.737Z,61.60
2022-10-18T20:04:19.152Z,61.69
2022-10-18T20:07:03.294Z,61.80
2022-10-18T20:09:30.932Z,62.53
2022-10-18T20:12:08.530Z,62.29
2022-10-18T20:14:36.000Z,62.86
2022-10-18T20:17:03.408Z,63.08
2022-10-18T20:19:31.131Z,63.28
2022-10-18T20:21:58.433Z,64.65
2022-10-18T20:24:26.083Z,68.41
2022-10-18T20:29:25.462Z,69.68
2022-10-18T20:32:12.183Z,70.79
2022-10-18T20:34:39.651Z,73.36
2022-10-18T20:37:07.219Z,73.27
2022-10-18T20:39:35.416Z,71.98
2022-10-18T20:42:02.962Z,70.79
2022-10-18T20:44:33.789Z,69.90
2022-10-18T20:47:01.105Z,69.01
2022-10-18T20:49:28.673Z,68.36
2022-10-18T20:51:56.053Z,68.33
2022-10-18T20:54:23.479Z,67.71
2022-10-18T20:56:50.878Z,67.98
2022-10-18T20:59:18.410Z,67.70
2022-10-18T21:01:51.685Z,66.73
2022-10-18T21:04:19.245Z,66.76
2022-10-18T21:06:46.662Z,66.34
2022-10-18T21:09:16.691Z,66.28
2022-10-18T21:11:46.747Z,65.79
2022-10-18T21:14:16.910Z,66.30
2022-10-18T21:16:45.126Z,65.61
2022-10-18T21:19:19.544Z,65.83
2022-10-18T21:21:50.492Z,65.21
2022-10-18T21:24:22.155Z,66.00
2022-10-18T21:26:49.957Z,66.01
2022-10-18T21:29:21.875Z,66.13
2022-10-18T21:31:50.096Z,67.22
2022-10-18T21:34:18.166Z,66.71
2022-10-18T21:36:46.926Z,66.41
2022-10-18T21:39:16.884Z,66.86
2022-10-18T21:41:45.314Z,66.35
2022-10-18T21:44:13.167Z,66.61
2022-10-18T21:46:43.002Z,67.76
2022-10-18T21:49:11.279Z,67.27
2022-10-18T21:51:39.203Z,66.99
2022-10-18T21:54:15.195Z,67.16
2022-10-18T21:56:42.964Z,66.61
2022-10-18T21:59:14.161Z,66.93
2022-10-18T22:01:43.702Z,66.72
2022-10-18T22:04:25.154Z,67.84
2022-10-18T22:06:52.695Z,67.74
2022-10-18T22:09:21.553Z,67.67
2022-10-18T22:11:52.051Z,67.63
2022-10-18T22:14:19.899Z,67.89
2022-10-18T22:16:47.565Z,67.81
2022-10-18T22:19:15.325Z,68.30
2022-10-18T22:21:42.837Z,69.85
2022-10-18T22:24:16.570Z,69.67
2022-10-18T22:26:45.431Z,70.18
2022-10-18T22:29:15.389Z,69.63
2022-10-18T22:31:45.684Z,70.63
2022-10-18T22:34:16.232Z,70.14
2022-10-18T22:36:44.093Z,69.67
2022-10-18T22:39:14.488Z,69.38
2022-10-18T22:41:42.676Z,69.03
2022-10-18T22:44:15.147Z,68.73
2022-10-18T22:46:43.063Z,68.91
2022-10-18T22:49:11.567Z,73.07
2022-10-18T22:51:39.937Z,72.64
2022-10-18T22:54:07.611Z,72.52
2022-10-18T22:56:35.312Z,71.76
2022-10-18T22:59:02.966Z,71.19
2022-10-18T23:01:30.468Z,70.73
2022-10-18T23:04:00.344Z,71.45
2022-10-18T23:06:33.803Z,71.71
2022-10-18T23:09:05.156Z,72.31
2022-10-18T23:11:33.996Z,73.23
2022-10-18T23:14:03.145Z,73.27
2022-10-18T23:16:31.435Z,72.77
2022-10-18T23:18:59.622Z,72.43
2022-10-18T23:21:28.439Z,71.69
2022-10-18T23:23:57.604Z,71.35
2022-10-18T23:26:26.945Z,70.87
2022-10-18T23:28:55.463Z,70.67
2022-10-18T23:31:29.118Z,70.25
2022-10-18T23:34:00.711Z,70.41
2022-10-18T23:36:29.034Z,70.20
2022-10-18T23:38:56.669Z,69.87
2022-10-18T23:41:24.519Z,69.55
2022-10-18T23:43:52.114Z,69.33
2022-10-18T23:46:20.451Z,69.42
2022-10-18T23:48:49.082Z,69.35
2022-10-18T23:51:17.553Z,69.34
2022-10-18T23:53:44.931Z,69.38
2022-10-18T23:56:15.143Z,69.25
2022-10-18T23:58:43.795Z,69.11
